Time;durP1;ratioP1;P1;durP2;ratioP2;P2;SDS_P1;SDS_P2;PMS_P1;PMS_P2;Temp;Humidity;BMP_temperature;BMP_pressure;BME280_temperature;BME280_humidity;BME280_pressure;Samples;Min_cycle;Max_cycle;Signal;HPM_P1;HPM_P2
2021/08/30 00:01:18;;;;;;;5.13;4.68;;;14.30;99.90;;;;;;5063445;28;20090;-78
2021/08/30 00:03:45;;;;;;;5.95;5.45;;;14.30;99.90;;;;;;5056527;28;20080;-78
2021/08/30 00:06:10;;;;;;;6.53;5.95;;;14.30;99.90;;;;;;5050138;28;20063;-79
2021/08/30 00:08:36;;;;;;;6.25;5.75;;;14.30;99.90;;;;;;5056336;28;20055;-79
2021/08/30 00:11:02;;;;;;;6.53;5.93;;;14.30;99.90;;;;;;5055890;28;20086;-79
2021/08/30 00:13:28;;;;;;;8.50;6.57;;;14.30;99.90;;;;;;5057963;28;20025;-78
2021/08/30 00:15:57;;;;;;;8.02;7.30;;;14.30;99.90;;;;;;5057326;28;20096;-79
2021/08/30 00:18:23;;;;;;;8.45;7.50;;;14.30;99.90;;;;;;5065388;28;20503;-78
2021/08/30 00:20:50;;;;;;;8.35;7.25;;;14.30;99.90;;;;;;5053760;28;20032;-78
2021/08/30 00:23:15;;;;;;;8.10;7.30;;;14.30;99.90;;;;;;5064598;28;20033;-78
2021/08/30 00:25:41;;;;;;;8.68;7.78;;;14.30;99.90;;;;;;5058804;28;20395;-77
2021/08/30 00:28:07;;;;;;;8.20;7.50;;;14.30;99.90;;;;;;5071666;28;20059;-77
2021/08/30 00:30:32;;;;;;;8.70;7.80;;;14.30;99.90;;;;;;5068369;28;20040;-78
2021/08/30 00:32:58;;;;;;;9.57;8.57;;;14.30;99.90;;;;;;5053948;28;20025;-76
2021/08/30 00:35:24;;;;;;;8.75;7.95;;;14.30;99.90;;;;;;5054108;28;20021;-78
2021/08/30 00:37:49;;;;;;;9.40;8.50;;;14.30;99.90;;;;;;5053945;28;20090;-78
2021/08/30 00:40:15;;;;;;;9.25;8.43;;;14.30;99.90;;;;;;5052541;28;20031;-77
2021/08/30 00:42:41;;;;;;;9.18;8.38;;;14.30;99.90;;;;;;5061227;28;20114;-76
2021/08/30 00:45:08;;;;;;;9.57;8.68;;;14.30;99.90;;;;;;5052422;28;20072;-76
2021/08/30 00:47:36;;;;;;;9.30;8.27;;;14.40;99.90;;;;;;5046462;28;20039;-78
2021/08/30 00:50:02;;;;;;;9.55;8.65;;;14.40;99.90;;;;;;5057652;28;20021;-77
2021/08/30 00:52:28;;;;;;;10.32;9.43;;;14.40;99.90;;;;;;5074756;28;20028;-74
2021/08/30 00:54:54;;;;;;;9.82;8.93;;;14.40;99.90;;;;;;5055742;28;20025;-76
2021/08/30 00:57:20;;;;;;;8.55;7.68;;;14.40;99.90;;;;;;5054128;28;20385;-76
2021/08/30 00:59:45;;;;;;;10.40;9.25;;;14.40;99.90;;;;;;5053455;28;20078;-77
2021/08/30 01:02:12;;;;;;;9.80;8.90;;;14.40;99.90;;;;;;5054094;28;20029;-77
2021/08/30 01:04:39;;;;;;;10.07;9.18;;;14.40;99.90;;;;;;5052084;28;20024;-77
2021/08/30 01:07:32;;;;;;;9.48;8.57;;;14.40;99.90;;;;;;5052189;28;20025;-76
2021/08/30 01:10:04;;;;;;;9.70;8.90;;;14.40;99.90;;;;;;5051734;28;20037;-76
2021/08/30 01:12:33;;;;;;;10.27;9.45;;;14.40;99.90;;;;;;5053369;28;20021;-76
2021/08/30 01:15:06;;;;;;;9.18;8.32;;;14.40;99.90;;;;;;5052988;28;20017;-77
2021/08/30 01:17:38;;;;;;;9.25;8.10;;;14.40;99.90;;;;;;5051993;28;20044;-77
2021/08/30 01:20:33;;;;;;;10.40;9.50;;;14.40;99.90;;;;;;5058309;28;20048;-76
2021/08/30 01:22:59;;;;;;;9.15;8.38;;;14.50;99.90;;;;;;5037676;28;20037;-76
2021/08/30 01:25:25;;;;;;;8.57;7.80;;;14.40;99.90;;;;;;5053224;28;20033;-76
2021/08/30 01:27:53;;;;;;;9.30;8.40;;;14.50;99.90;;;;;;5051814;28;20432;-77
2021/08/30 01:30:21;;;;;;;9.65;8.85;;;14.50;99.90;;;;;;5051609;28;20036;-75
2021/08/30 01:32:52;;;;;;;8.35;7.65;;;14.50;99.90;;;;;;5053168;28;20033;-76
2021/08/30 01:35:22;;;;;;;9.30;8.50;;;14.50;99.90;;;;;;5052778;28;20041;-76
2021/08/30 01:37:51;;;;;;;9.73;8.38;;;14.50;99.90;;;;;;5052621;28;20025;-76
2021/08/30 01:40:20;;;;;;;8.10;7.40;;;14.50;99.90;;;;;;5052674;28;20025;-76
2021/08/30 01:42:51;;;;;;;9.05;8.35;;;14.50;99.90;;;;;;5048053;28;20476;-76
2021/08/30 01:45:20;;;;;;;8.23;7.53;;;14.50;99.90;;;;;;5031738;28;20033;-76
2021/08/30 01:47:47;;;;;;;8.52;7.65;;;14.50;99.90;;;;;;5032819;28;20025;-76
2021/08/30 01:50:17;;;;;;;8.48;7.63;;;14.50;99.90;;;;;;5032256;28;20033;-76
2021/08/30 01:52:44;;;;;;;7.65;6.95;;;14.50;99.90;;;;;;5032680;28;20478;-76
2021/08/30 01:55:38;;;;;;;10.57;7.47;;;14.40;99.90;;;;;;5032429;28;20057;-77
2021/08/30 02:03:18;;;;;;;7.50;6.80;;;14.50;99.90;;;;;;5035970;28;20028;-77
2021/08/30 02:05:46;;;;;;;7.30;6.70;;;14.40;99.90;;;;;;5051479;28;20454;-76
2021/08/30 02:08:15;;;;;;;7.68;6.78;;;14.50;99.90;;;;;;5052374;28;20032;-76
2021/08/30 02:10:47;;;;;;;7.45;6.75;;;14.50;99.90;;;;;;5052121;28;20025;-76
2021/08/30 02:13:17;;;;;;;7.35;6.80;;;14.50;99.90;;;;;;5054688;28;20055;-76
2021/08/30 02:15:45;;;;;;;7.68;7.07;;;14.50;99.90;;;;;;5052069;28;20052;-76
2021/08/30 02:18:19;;;;;;;8.20;7.43;;;14.50;99.90;;;;;;5052780;28;20110;-76
2021/08/30 02:20:54;;;;;;;7.85;6.95;;;14.50;99.90;;;;;;5060822;28;20028;-76
2021/08/30 02:23:22;;;;;;;7.18;6.57;;;14.50;99.90;;;;;;5068951;28;20028;-76
2021/08/30 02:25:50;;;;;;;8.00;7.30;;;14.50;99.90;;;;;;5071377;28;20060;-76
2021/08/30 02:28:16;;;;;;;7.82;7.07;;;14.50;99.90;;;;;;5071147;28;20029;-76
2021/08/30 02:30:42;;;;;;;8.18;7.43;;;14.50;99.90;;;;;;5071195;28;20028;-76
2021/08/30 02:33:12;;;;;;;8.40;7.60;;;14.40;99.90;;;;;;5070687;28;20031;-76
2021/08/30 02:35:41;;;;;;;9.68;8.77;;;14.40;99.90;;;;;;5072719;28;20103;-77
2021/08/30 02:38:09;;;;;;;9.07;8.20;;;14.40;99.90;;;;;;5096374;28;20017;-77
2021/08/30 02:40:36;;;;;;;8.32;7.72;;;14.40;99.90;;;;;;5074809;28;20023;-77
2021/08/30 02:43:03;;;;;;;9.60;8.70;;;14.30;99.90;;;;;;5071953;28;20021;-76
2021/08/30 02:45:30;;;;;;;8.88;7.90;;;14.30;99.90;;;;;;5051542;28;20443;-76
2021/08/30 02:47:58;;;;;;;8.65;7.85;;;14.30;99.90;;;;;;5031749;28;20025;-76
2021/08/30 02:50:25;;;;;;;7.90;7.18;;;14.30;99.90;;;;;;5046998;28;20025;-77
2021/08/30 02:52:53;;;;;;;8.18;7.38;;;14.30;99.90;;;;;;5031684;28;20101;-76
2021/08/30 02:55:19;;;;;;;8.35;7.65;;;14.30;99.90;;;;;;5046989;28;20025;-76
2021/08/30 02:57:49;;;;;;;8.48;7.68;;;14.20;99.90;;;;;;5031429;28;20492;-77
2021/08/30 03:00:16;;;;;;;8.15;7.45;;;14.20;99.90;;;;;;5031947;28;20037;-77
2021/08/30 03:02:42;;;;;;;8.77;7.97;;;14.20;99.90;;;;;;5047015;28;20037;-76
2021/08/30 03:05:09;;;;;;;7.95;7.32;;;14.20;99.90;;;;;;5050189;28;20029;-76
2021/08/30 03:07:36;;;;;;;7.43;6.25;;;14.20;99.90;;;;;;5051027;28;20155;-77
2021/08/30 03:10:02;;;;;;;6.72;6.13;;;14.20;99.90;;;;;;5054847;28;20025;-76
2021/08/30 03:12:32;;;;;;;5.97;5.47;;;14.20;99.90;;;;;;5055173;28;20391;-76
2021/08/30 03:15:04;;;;;;;6.03;5.50;;;14.20;99.90;;;;;;5053714;28;20044;-76
2021/08/30 03:17:32;;;;;;;6.55;6.03;;;14.20;99.90;;;;;;5053528;28;20028;-76
2021/08/30 03:19:58;;;;;;;5.80;5.30;;;14.20;99.90;;;;;;5059800;28;20013;-77
2021/08/30 03:22:25;;;;;;;5.72;5.30;;;14.20;99.90;;;;;;5067040;28;20141;-76
2021/08/30 03:24:52;;;;;;;6.78;5.60;;;14.20;99.90;;;;;;5073872;28;20020;-77
2021/08/30 03:27:18;;;;;;;6.03;5.43;;;14.20;99.90;;;;;;5073969;28;20052;-77
2021/08/30 03:29:45;;;;;;;5.25;4.75;;;14.30;99.90;;;;;;5073660;28;20043;-77
2021/08/30 03:32:13;;;;;;;5.10;4.70;;;14.30;99.90;;;;;;5075418;28;20044;-76
2021/08/30 03:34:39;;;;;;;4.93;4.43;;;14.40;99.90;;;;;;5073725;28;20021;-76
2021/08/30 03:37:06;;;;;;;5.75;5.05;;;14.30;99.90;;;;;;5075286;28;20059;-76
2021/08/30 03:39:31;;;;;;;6.28;5.68;;;14.30;99.90;;;;;;5075113;28;20017;-77
2021/08/30 03:41:59;;;;;;;5.82;5.25;;;14.40;99.90;;;;;;5073944;28;20024;-77
2021/08/30 03:44:26;;;;;;;6.32;5.60;;;14.40;99.90;;;;;;5075584;28;20052;-77
2021/08/30 03:46:53;;;;;;;6.10;5.53;;;14.30;99.90;;;;;;5060835;28;20029;-76
2021/08/30 03:49:19;;;;;;;7.20;6.60;;;14.30;99.90;;;;;;5054907;28;20047;-77
2021/08/30 03:51:46;;;;;;;7.07;6.20;;;14.40;99.90;;;;;;5053088;28;20017;-77
2021/08/30 03:54:12;;;;;;;7.75;6.57;;;14.40;99.90;;;;;;5055421;28;20380;-76
2021/08/30 03:56:38;;;;;;;7.22;6.63;;;14.40;99.90;;;;;;5055219;28;20021;-77
2021/08/30 03:59:05;;;;;;;6.72;6.15;;;14.40;99.90;;;;;;5086851;28;20503;-77
2021/08/30 04:01:32;;;;;;;6.60;6.00;;;14.40;99.90;;;;;;5054568;28;20036;-77
2021/08/30 04:04:01;;;;;;;6.78;6.07;;;14.40;99.90;;;;;;5087269;28;20387;-76
2021/08/30 04:06:30;;;;;;;7.55;6.90;;;14.40;99.90;;;;;;5054692;28;20083;-77
2021/08/30 04:08:57;;;;;;;7.32;6.63;;;14.40;99.90;;;;;;5052793;28;20029;-76
2021/08/30 04:11:24;;;;;;;8.18;7.47;;;14.40;99.90;;;;;;5054037;28;20071;-76
2021/08/30 04:13:50;;;;;;;8.52;7.05;;;14.40;99.90;;;;;;5057339;28;20104;-76
2021/08/30 04:16:15;;;;;;;8.23;7.13;;;14.40;99.90;;;;;;5054446;28;20065;-76
2021/08/30 04:18:41;;;;;;;7.57;6.88;;;14.40;99.90;;;;;;5052995;28;20487;-77
2021/08/30 04:21:07;;;;;;;7.80;7.05;;;14.40;99.90;;;;;;5061925;28;20021;-77
2021/08/30 04:23:32;;;;;;;8.95;8.05;;;14.40;99.90;;;;;;5071744;28;20536;-76
2021/08/30 04:25:58;;;;;;;12.68;7.65;;;14.50;99.90;;;;;;5072532;28;20082;-76
2021/08/30 04:28:23;;;;;;;9.52;8.55;;;14.40;99.90;;;;;;5072825;28;20029;-76
2021/08/30 04:30:49;;;;;;;10.50;9.35;;;14.50;99.90;;;;;;5073660;28;20028;-77
2021/08/30 04:33:16;;;;;;;9.55;8.65;;;14.50;99.90;;;;;;5072367;28;20442;-77
2021/08/30 04:35:42;;;;;;;11.55;9.27;;;14.50;99.90;;;;;;5073613;28;20480;-77
2021/08/30 04:38:08;;;;;;;10.63;9.48;;;14.50;99.90;;;;;;5072390;28;20025;-76
2021/08/30 04:40:33;;;;;;;11.13;10.13;;;14.50;99.90;;;;;;5072290;28;20027;-76
2021/08/30 04:42:59;;;;;;;10.50;9.40;;;14.50;99.90;;;;;;5074111;28;20549;-76
2021/08/30 04:45:25;;;;;;;11.05;9.50;;;14.50;99.90;;;;;;5073723;28;20022;-76
2021/08/30 04:47:50;;;;;;;10.57;9.50;;;14.50;99.90;;;;;;5061740;28;20029;-77
2021/08/30 04:50:16;;;;;;;10.82;9.80;;;14.50;99.90;;;;;;5033366;28;20108;-77
2021/08/30 04:52:42;;;;;;;10.52;9.52;;;14.50;99.90;;;;;;5033379;28;20021;-77
2021/08/30 04:55:08;;;;;;;13.85;10.05;;;14.60;99.90;;;;;;5033797;28;20033;-77
2021/08/30 04:57:33;;;;;;;11.23;10.23;;;14.60;99.90;;;;;;5033269;28;20037;-77
2021/08/30 04:59:59;;;;;;;8.95;8.15;;;14.60;99.90;;;;;;5032463;28;20060;-76
2021/08/30 05:02:25;;;;;;;10.65;9.57;;;14.60;99.90;;;;;;5033271;28;20032;-77
2021/08/30 05:04:50;;;;;;;9.88;8.93;;;14.60;99.90;;;;;;5050240;28;20033;-76
2021/08/30 05:07:16;;;;;;;9.65;8.68;;;14.50;99.90;;;;;;5052184;28;20070;-77
2021/08/30 05:09:42;;;;;;;9.43;8.52;;;14.50;99.90;;;;;;5053159;28;20057;-75
2021/08/30 05:12:07;;;;;;;9.65;8.63;;;14.50;99.90;;;;;;5052996;28;20040;-77
2021/08/30 05:14:34;;;;;;;9.55;8.68;;;14.60;99.90;;;;;;5052274;28;20017;-77
2021/08/30 05:17:00;;;;;;;9.23;8.43;;;14.70;99.90;;;;;;5053625;28;20380;-77
2021/08/30 05:19:26;;;;;;;8.65;7.78;;;14.60;99.90;;;;;;5051291;28;20033;-78
2021/08/30 05:21:51;;;;;;;9.55;8.65;;;14.60;99.90;;;;;;5064407;28;20034;-77
2021/08/30 05:24:17;;;;;;;9.60;8.63;;;14.70;99.90;;;;;;5071605;28;20525;-77
2021/08/30 05:26:43;;;;;;;10.23;9.23;;;14.60;99.90;;;;;;5072610;28;20037;-77
2021/08/30 05:29:08;;;;;;;11.07;9.98;;;14.70;99.90;;;;;;5072498;28;20078;-77
2021/08/30 05:31:34;;;;;;;10.75;9.75;;;14.60;99.90;;;;;;5070713;28;20056;-77
2021/08/30 05:34:00;;;;;;;9.60;8.70;;;14.60;99.90;;;;;;5072286;28;20032;-76
2021/08/30 05:36:27;;;;;;;11.95;10.75;;;14.60;99.90;;;;;;5072533;28;20035;-77
2021/08/30 05:38:53;;;;;;;10.18;9.27;;;14.60;99.90;;;;;;5072405;28;20024;-77
2021/08/30 05:41:19;;;;;;;11.77;9.90;;;14.60;99.90;;;;;;5071133;28;20029;-77
2021/08/30 05:43:45;;;;;;;10.18;9.18;;;14.70;99.90;;;;;;5072014;28;20097;-76
2021/08/30 05:46:15;;;;;;;10.60;9.70;;;14.60;99.90;;;;;;5073204;28;20025;-77
2021/08/30 05:48:42;;;;;;;11.40;9.77;;;14.60;99.90;;;;;;5071134;28;20386;-76
2021/08/30 05:51:07;;;;;;;10.77;9.68;;;14.70;99.90;;;;;;5057318;28;20029;-77
2021/08/30 05:53:33;;;;;;;12.82;9.57;;;14.70;99.90;;;;;;5052284;28;20085;-77
2021/08/30 05:55:58;;;;;;;10.25;9.23;;;14.70;99.90;;;;;;5052043;28;20104;-77
2021/08/30 05:58:24;;;;;;;10.02;8.95;;;14.80;99.90;;;;;;5052187;28;20067;-77
2021/08/30 06:00:49;;;;;;;9.27;8.48;;;14.80;99.90;;;;;;5052370;28;20538;-77
2021/08/30 06:03:15;;;;;;;11.00;10.00;;;14.80;99.90;;;;;;5051783;28;20116;-77
2021/08/30 06:05:41;;;;;;;9.60;8.70;;;14.80;99.90;;;;;;5051748;28;20100;-76
2021/08/30 06:08:06;;;;;;;10.40;9.50;;;14.80;99.90;;;;;;5052023;28;20071;-77
2021/08/30 06:10:32;;;;;;;10.02;9.05;;;14.80;99.90;;;;;;5050435;28;20078;-76
2021/08/30 06:12:57;;;;;;;10.25;8.90;;;14.90;99.90;;;;;;5050839;28;20017;-77
2021/08/30 06:15:23;;;;;;;10.00;8.55;;;15.00;99.90;;;;;;5050592;28;20025;-77
2021/08/30 06:17:49;;;;;;;9.13;8.23;;;15.20;99.90;;;;;;5051879;28;20112;-77
2021/08/30 06:20:14;;;;;;;9.32;8.43;;;15.20;99.90;;;;;;5060616;28;20103;-77
2021/08/30 06:22:40;;;;;;;9.80;8.90;;;15.20;99.90;;;;;;5068762;28;20023;-77
2021/08/30 06:25:06;;;;;;;10.23;9.23;;;15.20;99.90;;;;;;5071649;28;20026;-76
2021/08/30 06:27:32;;;;;;;9.90;9.00;;;15.30;99.90;;;;;;5070266;28;20032;-76
2021/08/30 06:29:57;;;;;;;8.40;7.63;;;15.40;99.90;;;;;;5071304;28;20104;-77
2021/08/30 06:32:23;;;;;;;8.68;7.88;;;15.60;99.90;;;;;;5071800;28;20049;-77
2021/08/30 06:34:48;;;;;;;9.27;8.40;;;15.60;99.90;;;;;;5070778;28;20020;-77
2021/08/30 06:37:14;;;;;;;8.15;7.45;;;16.00;99.90;;;;;;5070374;28;20020;-77
2021/08/30 06:39:39;;;;;;;7.53;6.82;;;16.20;99.90;;;;;;5061891;28;20025;-78
2021/08/30 06:42:05;;;;;;;8.05;7.20;;;16.20;99.90;;;;;;5051160;28;20037;-76
2021/08/30 06:44:31;;;;;;;7.97;7.28;;;16.20;99.90;;;;;;5066055;28;20029;-76
2021/08/30 06:46:57;;;;;;;8.02;7.15;;;16.10;99.90;;;;;;5075541;28;20059;-76
2021/08/30 06:49:22;;;;;;;7.90;7.05;;;15.90;99.90;;;;;;5074116;28;20124;-76
2021/08/30 06:51:47;;;;;;;8.35;7.32;;;15.90;99.90;;;;;;5070200;28;20031;-77
2021/08/30 06:54:13;;;;;;;7.65;7.00;;;15.90;99.90;;;;;;5067304;28;20028;-76
2021/08/30 06:56:39;;;;;;;7.35;6.68;;;16.10;99.90;;;;;;5065806;28;20020;-76
2021/08/30 06:59:04;;;;;;;9.00;7.28;;;16.10;99.90;;;;;;5064508;28;20388;-76
2021/08/30 07:01:30;;;;;;;7.93;7.05;;;15.90;99.90;;;;;;5054244;28;20056;-75
2021/08/30 07:03:55;;;;;;;7.95;7.15;;;15.90;99.90;;;;;;5055107;28;20037;-76
2021/08/30 07:06:21;;;;;;;7.97;7.22;;;16.00;99.90;;;;;;5053757;28;20032;-75
2021/08/30 07:08:46;;;;;;;7.75;6.97;;;16.00;99.90;;;;;;5055101;28;20039;-76
2021/08/30 07:11:12;;;;;;;8.85;7.45;;;16.00;99.90;;;;;;5053845;28;20021;-76
2021/08/30 07:13:38;;;;;;;9.65;7.32;;;15.90;99.90;;;;;;5059384;28;20028;-75
2021/08/30 07:16:03;;;;;;;8.18;7.47;;;16.10;99.90;;;;;;5070902;28;20071;-76
2021/08/30 07:18:29;;;;;;;7.10;6.45;;;16.40;99.90;;;;;;5068311;28;20131;-76
2021/08/30 07:20:54;;;;;;;7.70;6.68;;;16.50;99.90;;;;;;5055412;28;20021;-76
2021/08/30 07:23:20;;;;;;;7.97;7.13;;;16.50;99.90;;;;;;5053742;28;20480;-75
2021/08/30 07:25:45;;;;;;;8.38;7.57;;;16.80;99.90;;;;;;5054735;28;20484;-75
2021/08/30 07:28:11;;;;;;;7.75;7.05;;;16.70;99.90;;;;;;5054920;28;20549;-77
2021/08/30 07:30:37;;;;;;;7.88;7.18;;;16.50;99.90;;;;;;5054554;28;20017;-76
2021/08/30 07:33:02;;;;;;;7.38;6.68;;;16.30;99.90;;;;;;5053589;28;20017;-76
2021/08/30 07:35:28;;;;;;;7.32;6.63;;;16.20;99.90;;;;;;5054508;28;20021;-75
2021/08/30 07:37:54;;;;;;;7.68;7.05;;;16.20;99.90;;;;;;5054534;28;20036;-76
2021/08/30 07:40:20;;;;;;;8.25;7.53;;;16.10;99.90;;;;;;5052052;28;20033;-76
2021/08/30 07:42:46;;;;;;;7.50;6.90;;;16.20;99.90;;;;;;5066714;28;20029;-76
2021/08/30 07:45:11;;;;;;;7.90;6.40;;;16.20;99.90;;;;;;5063529;28;20396;-76
2021/08/30 07:47:37;;;;;;;7.75;7.05;;;16.20;99.90;;;;;;5072772;28;20044;-76
2021/08/30 07:50:05;;;;;;;7.18;6.47;;;16.30;99.90;;;;;;5065185;28;20383;-75
2021/08/30 07:52:31;;;;;;;8.07;6.50;;;16.30;99.90;;;;;;5054277;28;20051;-76
2021/08/30 07:54:57;;;;;;;7.22;6.55;;;16.10;99.90;;;;;;5054030;28;20049;-76
2021/08/30 07:57:22;;;;;;;9.48;6.68;;;16.10;99.90;;;;;;5054208;28;20499;-76
2021/08/30 07:59:48;;;;;;;6.90;6.20;;;16.10;99.90;;;;;;5053988;28;20013;-76
2021/08/30 08:02:13;;;;;;;7.60;6.90;;;16.10;99.90;;;;;;5054029;28;20052;-76
2021/08/30 08:04:39;;;;;;;8.55;7.20;;;16.30;99.90;;;;;;5053921;28;20443;-75
2021/08/30 08:07:04;;;;;;;7.95;7.15;;;16.10;99.90;;;;;;5060364;28;20035;-77
2021/08/30 08:09:30;;;;;;;7.95;7.25;;;16.10;99.90;;;;;;5058681;28;20036;-76
2021/08/30 08:11:56;;;;;;;7.93;7.25;;;15.90;99.90;;;;;;5052478;28;20032;-76
2021/08/30 08:14:22;;;;;;;7.90;7.10;;;15.90;99.90;;;;;;5055895;28;20029;-77
2021/08/30 08:16:47;;;;;;;8.55;7.60;;;15.90;99.90;;;;;;5052330;28;20024;-75
2021/08/30 08:19:14;;;;;;;7.53;6.82;;;15.90;99.90;;;;;;5052315;28;20024;-75
2021/08/30 08:21:41;;;;;;;8.23;7.40;;;15.90;99.90;;;;;;5053645;28;20028;-76
2021/08/30 08:24:08;;;;;;;8.10;7.32;;;15.80;99.90;;;;;;5053614;28;20484;-76
2021/08/30 08:26:34;;;;;;;8.15;7.35;;;15.90;99.90;;;;;;5054088;28;20082;-76
2021/08/30 08:29:00;;;;;;;8.73;7.88;;;15.90;99.90;;;;;;5052505;28;20388;-76
2021/08/30 08:31:26;;;;;;;13.57;7.80;;;15.80;99.90;;;;;;5052249;28;20032;-76
2021/08/30 08:33:52;;;;;;;10.85;7.80;;;15.90;99.90;;;;;;5052401;28;20033;-76
2021/08/30 08:36:23;;;;;;;6.43;5.82;;;16.10;99.90;;;;;;5053738;28;20017;-77
2021/08/30 08:38:49;;;;;;;8.35;6.88;;;16.00;99.90;;;;;;5052225;28;20049;-76
2021/08/30 08:41:15;;;;;;;6.82;5.85;;;16.20;99.90;;;;;;5053509;28;20114;-75
2021/08/30 08:43:41;;;;;;;8.00;6.60;;;16.10;99.90;;;;;;5052238;28;20151;-76
2021/08/30 08:46:07;;;;;;;6.90;6.20;;;16.00;99.90;;;;;;5052276;28;20029;-75
2021/08/30 08:48:33;;;;;;;7.63;6.60;;;15.80;99.90;;;;;;5053602;28;20079;-77
2021/08/30 08:50:59;;;;;;;5.93;5.32;;;15.80;99.90;;;;;;5053255;28;20029;-76
2021/08/30 08:53:25;;;;;;;7.60;6.90;;;15.80;99.90;;;;;;5053300;28;20031;-76
2021/08/30 08:55:50;;;;;;;5.90;5.40;;;15.90;99.90;;;;;;5053010;28;20027;-77
2021/08/30 08:58:17;;;;;;;6.30;5.75;;;16.10;99.90;;;;;;5051868;28;20112;-77
2021/08/30 09:00:46;;;;;;;5.95;5.45;;;16.20;99.90;;;;;;5056040;28;20103;-75
2021/08/30 09:03:14;;;;;;;6.57;5.40;;;16.50;99.90;;;;;;5061098;28;20439;-76
2021/08/30 09:05:39;;;;;;;7.10;5.65;;;16.80;99.90;;;;;;5050922;28;20024;-77
2021/08/30 09:08:05;;;;;;;6.38;5.78;;;17.10;99.90;;;;;;5052005;28;20025;-77
2021/08/30 09:10:37;;;;;;;5.85;5.32;;;17.10;99.90;;;;;;5053530;28;20029;-77
2021/08/30 09:13:07;;;;;;;5.72;5.20;;;17.20;99.90;;;;;;5051570;28;20025;-77
2021/08/30 09:15:40;;;;;;;5.68;5.13;;;17.20;99.90;;;;;;5051844;28;20448;-76
2021/08/30 09:18:10;;;;;;;7.70;6.10;;;17.40;99.90;;;;;;5051547;28;20025;-76
2021/08/30 09:20:37;;;;;;;6.18;5.57;;;17.30;99.90;;;;;;5051179;28;20033;-78
2021/08/30 09:23:14;;;;;;;7.32;6.63;;;17.10;99.90;;;;;;5052501;28;20159;-77
2021/08/30 09:25:40;;;;;;;8.98;7.03;;;17.00;99.90;;;;;;5051391;28;20021;-76
2021/08/30 09:28:06;;;;;;;7.10;6.50;;;17.10;99.90;;;;;;5051305;28;20381;-76
2021/08/30 09:30:32;;;;;;;8.57;6.45;;;17.10;99.90;;;;;;5052430;28;20031;-77
2021/08/30 09:32:59;;;;;;;7.00;6.28;;;17.40;99.90;;;;;;5051412;28;20017;-77
2021/08/30 09:35:25;;;;;;;7.43;6.72;;;17.80;99.90;;;;;;5051490;28;20052;-77
2021/08/30 09:37:51;;;;;;;7.22;6.60;;;17.90;99.90;;;;;;5051441;28;20494;-75
2021/08/30 09:40:19;;;;;;;8.68;7.82;;;17.70;99.90;;;;;;5050853;28;20044;-77
2021/08/30 09:42:54;;;;;;;8.27;7.47;;;17.30;99.90;;;;;;5052549;28;20035;-78
2021/08/30 09:45:23;;;;;;;8.27;7.50;;;17.10;99.90;;;;;;5052790;28;20044;-77
2021/08/30 09:47:51;;;;;;;9.20;8.25;;;16.80;99.90;;;;;;5051178;28;20033;-76
2021/08/30 09:50:17;;;;;;;9.30;8.32;;;16.60;99.90;;;;;;5051851;28;20044;-78
2021/08/30 09:52:46;;;;;;;10.48;9.38;;;16.30;99.90;;;;;;5052064;28;20025;-77
2021/08/30 09:55:11;;;;;;;9.70;8.70;;;16.30;99.90;;;;;;5052114;28;20029;-76
2021/08/30 09:57:38;;;;;;;11.30;8.27;;;16.40;99.90;;;;;;5052338;28;20033;-76
2021/08/30 10:00:05;;;;;;;9.82;8.80;;;16.30;99.90;;;;;;5051066;28;20032;-76
2021/08/30 10:02:31;;;;;;;9.13;8.23;;;16.40;99.90;;;;;;5063096;28;20033;-76
2021/08/30 10:05:02;;;;;;;9.48;8.57;;;16.30;99.90;;;;;;5054311;28;20025;-76
2021/08/30 10:07:30;;;;;;;9.15;8.25;;;16.30;99.90;;;;;;5055317;28;20049;-77
2021/08/30 10:09:56;;;;;;;10.77;9.30;;;16.30;99.90;;;;;;5051989;28;20395;-77
2021/08/30 10:12:22;;;;;;;9.13;8.20;;;16.30;99.90;;;;;;5052352;28;20028;-76
2021/08/30 10:14:48;;;;;;;9.75;8.85;;;16.20;99.90;;;;;;5051434;28;20059;-76
2021/08/30 10:17:17;;;;;;;11.32;10.23;;;16.30;99.90;;;;;;5061948;28;20092;-77
2021/08/30 10:19:42;;;;;;;15.10;10.20;;;16.30;99.90;;;;;;5058099;28;20021;-75
2021/08/30 10:22:20;;;;;;;11.95;9.27;;;16.40;99.90;;;;;;5093512;28;20024;-76
2021/08/30 10:24:47;;;;;;;11.80;10.60;;;16.40;99.90;;;;;;5063358;28;20384;-75
2021/08/30 10:27:14;;;;;;;13.38;10.30;;;16.40;99.90;;;;;;5065036;28;20064;-76
2021/08/30 10:29:43;;;;;;;11.60;10.40;;;16.40;99.90;;;;;;5050327;28;20025;-76
2021/08/30 10:32:23;;;;;;;16.48;11.32;;;16.30;99.90;;;;;;5066663;28;20033;-76
2021/08/30 10:34:54;;;;;;;11.55;10.45;;;16.30;99.90;;;;;;5067527;28;20070;-77
2021/08/30 10:37:22;;;;;;;;;;;16.20;99.90;;;;;;5067987;28;20068;-77
2021/08/30 10:39:53;;;;;;;10.43;9.52;;;16.10;99.90;;;;;;5050467;28;19912;-76
2021/08/30 10:42:19;;;;;;;;;;;16.10;99.90;;;;;;5053398;28;20040;-77
2021/08/30 10:45:06;;;;;;;11.48;9.82;;;16.20;99.90;;;;;;5050731;28;19909;-77
2021/08/30 10:47:36;;;;;;;11.95;10.70;;;16.30;99.90;;;;;;5051790;28;20496;-77
2021/08/30 10:50:05;;;;;;;10.60;9.60;;;16.30;99.90;;;;;;5048904;28;20115;-76
2021/08/30 10:52:39;;;;;;;10.63;9.52;;;16.60;99.90;;;;;;5052432;28;20021;-76
2021/08/30 10:55:16;;;;;;;10.70;9.60;;;16.80;99.90;;;;;;5063058;28;20021;-76
2021/08/30 10:57:47;;;;;;;9.50;8.48;;;16.90;99.90;;;;;;5070688;28;20025;-77
2021/08/30 11:00:14;;;;;;;10.02;9.00;;;16.80;99.90;;;;;;5050628;28;20025;-77
2021/08/30 11:02:47;;;;;;;9.13;8.32;;;16.80;99.90;;;;;;5051791;28;20025;-77
2021/08/30 11:05:17;;;;;;;8.35;7.22;;;16.80;99.90;;;;;;5035488;28;20025;-77
2021/08/30 11:07:43;;;;;;;6.65;6.03;;;17.10;99.90;;;;;;5051214;28;20029;-78
2021/08/30 11:10:09;;;;;;;7.70;6.90;;;17.40;99.90;;;;;;5050691;28;20075;-76
2021/08/30 11:12:35;;;;;;;7.55;6.65;;;17.50;99.90;;;;;;5051121;28;20021;-77
2021/08/30 11:15:01;;;;;;;7.53;6.68;;;17.60;99.90;;;;;;5051523;28;20025;-77
2021/08/30 11:17:31;;;;;;;10.95;7.10;;;17.90;99.90;;;;;;5050729;28;20029;-76
2021/08/30 11:19:59;;;;;;;5.88;5.38;;;18.20;99.90;;;;;;5052219;28;20476;-76
2021/08/30 11:22:25;;;;;;;7.38;6.10;;;17.80;99.90;;;;;;5051825;28;20416;-78
2021/08/30 11:24:51;;;;;;;6.57;5.47;;;17.70;99.90;;;;;;5050305;28;20028;-77
2021/08/30 11:27:27;;;;;;;6.60;5.80;;;17.80;99.90;;;;;;5051901;28;20175;-77
2021/08/30 11:29:55;;;;;;;5.93;5.35;;;17.90;99.90;;;;;;5053687;28;20515;-77
2021/08/30 11:32:23;;;;;;;6.38;5.78;;;18.20;99.90;;;;;;5053742;28;20116;-77
2021/08/30 11:34:50;;;;;;;6.70;5.80;;;18.20;99.90;;;;;;5055365;28;20025;-77
2021/08/30 11:37:19;;;;;;;6.57;5.97;;;18.50;99.90;;;;;;5054043;28;20025;-77
2021/08/30 11:39:49;;;;;;;7.68;6.88;;;18.70;99.90;;;;;;5056113;28;20055;-76
2021/08/30 11:42:31;;;;;;;6.90;6.20;;;18.50;99.90;;;;;;5058552;28;20017;-77
2021/08/30 11:45:00;;;;;;;7.28;6.57;;;18.40;99.90;;;;;;5055195;28;20124;-77
2021/08/30 11:47:26;;;;;;;6.72;6.13;;;17.90;99.90;;;;;;5054279;28;20076;-77
2021/08/30 11:49:54;;;;;;;7.93;7.22;;;17.70;99.90;;;;;;5064126;28;20036;-76
2021/08/30 11:52:26;;;;;;;8.30;7.50;;;17.70;99.90;;;;;;5056776;28;20124;-77
2021/08/30 11:55:12;;;;;;;7.45;6.68;;;17.60;99.90;;;;;;5056439;28;20083;-77
2021/08/30 11:57:40;;;;;;;8.98;8.10;;;17.50;99.90;;;;;;5054977;28;20036;-77
2021/08/30 12:00:09;;;;;;;11.48;8.50;;;17.60;99.90;;;;;;5064953;28;20023;-78
2021/08/30 12:02:35;;;;;;;9.52;8.30;;;17.60;99.90;;;;;;5073915;28;20098;-78
2021/08/30 12:05:05;;;;;;;10.23;8.65;;;17.50;99.90;;;;;;5054849;28;20025;-77
2021/08/30 12:07:36;;;;;;;10.90;8.37;;;17.30;99.90;;;;;;5055428;28;20017;-76
2021/08/30 12:10:10;;;;;;;11.13;8.60;;;17.30;99.90;;;;;;5054941;28;20021;-77
2021/08/30 12:18:18;;;;;;;9.48;7.90;;;17.20;99.90;;;;;;5034329;28;20025;-79
2021/08/30 12:20:45;;;;;;;9.15;7.82;;;17.30;99.90;;;;;;5042860;28;20128;-77
2021/08/30 12:23:18;;;;;;;9.32;8.48;;;17.50;99.90;;;;;;5054034;28;20025;-76
2021/08/30 12:25:46;;;;;;;8.65;7.85;;;17.50;99.90;;;;;;5077589;28;20016;-77
2021/08/30 12:28:14;;;;;;;11.77;8.80;;;17.30;99.90;;;;;;5073129;28;20500;-76
2021/08/30 12:30:43;;;;;;;8.55;7.20;;;17.30;99.90;;;;;;5054313;28;20025;-77
2021/08/30 12:33:17;;;;;;;9.13;7.25;;;17.10;99.90;;;;;;5054003;28;20013;-78
2021/08/30 12:35:45;;;;;;;8.32;7.53;;;16.90;99.90;;;;;;5057307;28;20029;-78
2021/08/30 12:38:13;;;;;;;9.55;8.57;;;16.90;99.90;;;;;;5072543;28;20484;-77
2021/08/30 12:40:41;;;;;;;9.25;7.80;;;16.80;99.90;;;;;;5066889;28;20030;-76
2021/08/30 12:43:07;;;;;;;10.07;8.23;;;16.80;99.90;;;;;;5052622;28;20386;-77
2021/08/30 12:45:33;;;;;;;9.15;8.07;;;16.80;99.90;;;;;;5052803;28;20024;-76
2021/08/30 12:47:59;;;;;;;7.00;6.32;;;16.60;99.90;;;;;;5053105;28;20029;-77
2021/08/30 12:50:26;;;;;;;8.82;7.93;;;16.50;99.90;;;;;;5051662;28;20033;-77
2021/08/30 12:52:51;;;;;;;8.40;7.70;;;16.50;99.90;;;;;;5065381;28;20016;-76
2021/08/30 12:55:17;;;;;;;8.07;7.35;;;16.50;99.90;;;;;;5057990;28;20036;-77
2021/08/30 12:57:45;;;;;;;9.80;7.43;;;16.50;99.90;;;;;;5067623;28;20032;-76